createdAt,value
2023-04-28T00:02:08.254Z,100809.64
2023-04-28T00:04:42.301Z,100810.11
2023-04-28T00:07:16.259Z,100812.02
2023-04-28T00:09:49.708Z,100813.55
2023-04-28T00:12:22.953Z,100811.60
2023-04-28T00:14:56.905Z,100807.82
2023-04-28T00:17:30.738Z,100804.98
2023-04-28T00:20:04.844Z,100809.67
2023-04-28T00:22:38.721Z,100810.27
2023-04-28T00:25:13.046Z,100810.52
2023-04-28T00:27:47.333Z,100808.84
2023-04-28T00:30:21.552Z,100810.72
2023-04-28T00:32:56.379Z,100810.09
2023-04-28T00:35:29.983Z,100806.98
2023-04-28T00:38:03.287Z,100807.22
2023-04-28T00:40:40.882Z,100807.77
2023-04-28T00:43:15.687Z,100810.70
2023-04-28T00:45:50.516Z,100811.39
2023-04-28T00:48:24.547Z,100810.56
2023-04-28T00:50:58.318Z,100812.84
2023-04-28T00:53:32.480Z,100814.15
2023-04-28T00:56:07.358Z,100815.73
2023-04-28T00:58:41.042Z,100814.30
2023-04-28T01:01:14.452Z,100814.25
2023-04-28T01:03:49.136Z,100812.59
2023-04-28T01:06:23.438Z,100811.89
2023-04-28T01:08:57.919Z,100816.36
2023-04-28T01:11:31.458Z,100819.08
2023-04-28T01:14:17.418Z,100817.38
2023-04-28T01:16:51.727Z,100818.16
2023-04-28T01:19:25.925Z,100820.73
2023-04-28T01:22:00.077Z,100818.14
2023-04-28T01:24:34.091Z,100818.30
2023-04-28T01:27:10.579Z,100821.61
2023-04-28T01:29:45.365Z,100822.88
2023-04-28T01:32:19.298Z,100823.00
2023-04-28T01:34:53.130Z,100823.44
2023-04-28T01:37:26.948Z,100824.76
2023-04-28T01:40:00.756Z,100827.48
2023-04-28T01:42:34.229Z,100829.83
2023-04-28T01:45:09.682Z,100830.88
2023-04-28T01:47:43.392Z,100836.02
2023-04-28T01:50:16.889Z,100837.47
2023-04-28T01:52:50.645Z,100834.05
2023-04-28T01:55:24.108Z,100831.44
2023-04-28T01:57:59.042Z,100833.51
2023-04-28T02:00:32.919Z,100836.55
2023-04-28T02:03:06.381Z,100834.20
2023-04-28T02:05:41.832Z,100834.09
2023-04-28T02:08:15.353Z,100833.29
2023-04-28T02:10:49.115Z,100831.18
2023-04-28T02:13:22.578Z,100835.75
2023-04-28T02:15:56.583Z,100833.13
2023-04-28T02:18:30.777Z,100838.38
2023-04-28T02:21:13.687Z,100838.11
2023-04-28T02:23:47.910Z,100836.52
2023-04-28T02:26:21.545Z,100835.77
2023-04-28T02:28:58.242Z,100837.86
2023-04-28T02:31:31.896Z,100837.50
2023-04-28T02:34:05.562Z,100837.88
2023-04-28T02:36:38.934Z,100840.89
2023-04-28T02:39:14.706Z,100837.80
2023-04-28T02:41:48.520Z,100837.46
2023-04-28T02:44:22.147Z,100837.85
2023-04-28T02:46:56.006Z,100835.41
2023-04-28T02:49:32.260Z,100835.42
2023-04-28T02:52:06.097Z,100839.01
2023-04-28T02:54:40.069Z,100844.92
2023-04-28T02:57:13.802Z,100843.79
2023-04-28T02:59:47.280Z,100839.18
2023-04-28T03:02:23.513Z,100843.89
2023-04-28T03:04:57.887Z,100845.04
2023-04-28T03:07:32.028Z,100846.52
2023-04-28T03:10:06.038Z,100849.67
2023-04-28T03:12:39.672Z,100843.52
2023-04-28T03:15:14.419Z,100845.84
2023-04-28T03:17:48.766Z,100851.69
2023-04-28T03:20:22.722Z,100856.30
2023-04-28T03:22:56.108Z,100851.28
2023-04-28T03:25:30.104Z,100848.09
2023-04-28T03:28:03.941Z,100852.85
2023-04-28T03:30:37.300Z,100854.77
2023-04-28T03:33:11.086Z,100855.20
2023-04-28T03:35:45.013Z,100852.80
2023-04-28T03:38:19.104Z,100851.81
2023-04-28T03:40:52.833Z,100854.30
2023-04-28T03:43:29.472Z,100855.30
2023-04-28T03:46:21.130Z,100853.71
2023-04-28T03:48:55.480Z,100851.39
2023-04-28T03:51:29.458Z,100851.23
2023-04-28T03:54:03.265Z,100849.96
2023-04-28T03:56:37.478Z,100848.21
2023-04-28T03:59:13.394Z,100848.46
2023-04-28T04:01:47.001Z,100850.02
2023-04-28T04:04:20.680Z,100853.91
2023-04-28T04:06:55.611Z,100856.48
2023-04-28T04:09:30.179Z,100854.73
2023-04-28T04:12:04.024Z,100860.35
2023-04-28T04:14:37.638Z,100861.02
2023-04-28T04:17:11.304Z,100860.00
2023-04-28T04:19:45.076Z,100857.80
2023-04-28T04:22:19.249Z,100862.86
2023-04-28T04:24:53.079Z,100866.23
2023-04-28T04:27:26.673Z,100868.78
2023-04-28T04:30:01.242Z,100871.45
2023-04-28T04:32:34.690Z,100870.11
2023-04-28T04:35:09.017Z,100875.81
2023-04-28T04:37:42.994Z,100876.50
2023-04-28T04:40:17.075Z,100875.30
2023-04-28T04:42:54.606Z,100876.81
2023-04-28T04:45:28.644Z,100875.69
2023-04-28T04:48:02.587Z,100874.80
2023-04-28T04:50:35.968Z,100875.55
2023-04-28T04:53:13.310Z,100877.29
2023-04-28T04:55:50.188Z,100885.98
2023-04-28T04:58:25.653Z,100884.14
2023-04-28T05:01:10.756Z,100880.73
2023-04-28T05:03:44.670Z,100877.63
2023-04-28T05:06:19.145Z,100880.93
2023-04-28T05:08:56.935Z,100879.40
2023-04-28T05:11:31.163Z,100874.27
2023-04-28T05:14:04.713Z,100874.03
2023-04-28T05:16:38.901Z,100880.31
2023-04-28T05:19:23.713Z,100878.42
2023-04-28T05:21:57.460Z,100873.30
2023-04-28T05:24:31.310Z,100869.92
2023-04-28T05:27:05.142Z,100871.66
2023-04-28T05:29:39.076Z,100865.58
2023-04-28T05:32:14.008Z,100859.95
2023-04-28T05:34:48.524Z,100858.79
2023-04-28T05:37:22.191Z,100858.83
2023-04-28T05:39:55.947Z,100861.00
2023-04-28T05:42:29.504Z,100860.59
2023-04-28T05:45:03.309Z,100860.66
2023-04-28T05:47:37.230Z,100860.73
2023-04-28T05:50:12.813Z,100858.60
2023-04-28T05:52:46.664Z,100860.42
2023-04-28T05:55:20.625Z,100859.30
2023-04-28T05:57:54.905Z,100858.73
2023-04-28T06:00:29.393Z,100860.92
2023-04-28T06:03:05.926Z,100862.42
2023-04-28T06:05:39.804Z,100862.91
2023-04-28T06:08:14.225Z,100859.12
2023-04-28T06:10:47.751Z,100861.79
2023-04-28T06:13:21.565Z,100857.30
2023-04-28T06:15:55.364Z,100857.45
2023-04-28T06:18:31.966Z,100858.20
2023-04-28T06:21:07.774Z,100854.59
2023-04-28T06:23:42.606Z,100851.45
2023-04-28T06:26:18.234Z,100855.91
2023-04-28T06:28:52.773Z,100855.36
2023-04-28T06:31:26.538Z,100854.59
2023-04-28T06:34:00.531Z,100850.83
2023-04-28T06:36:34.611Z,100849.85
2023-04-28T06:39:08.602Z,100855.58
2023-04-28T06:41:42.917Z,100855.52
2023-04-28T06:44:17.288Z,100859.89
2023-04-28T06:46:51.886Z,100863.90
2023-04-28T06:49:25.356Z,100857.52
2023-04-28T06:52:04.863Z,100859.05
2023-04-28T06:54:38.833Z,100860.78
2023-04-28T06:57:15.299Z,100864.09
2023-04-28T06:59:48.994Z,100866.83
2023-04-28T07:02:22.666Z,100864.79
2023-04-28T07:04:56.890Z,100870.84
2023-04-28T07:07:30.334Z,100869.85
2023-04-28T07:10:04.663Z,100868.80
2023-04-28T07:12:38.458Z,100870.88
2023-04-28T07:15:13.808Z,100865.88
2023-04-28T07:17:47.371Z,100862.09
2023-04-28T07:20:21.477Z,100863.04
2023-04-28T07:22:55.238Z,100860.39
2023-04-28T07:25:29.067Z,100859.00
2023-04-28T07:28:04.991Z,100854.31
2023-04-28T07:30:38.750Z,100857.13
2023-04-28T07:33:12.465Z,100856.87
2023-04-28T07:35:46.673Z,100850.73
2023-04-28T07:38:20.817Z,100849.44
2023-04-28T07:40:54.750Z,100847.30
2023-04-28T07:43:28.740Z,100842.77
2023-04-28T07:46:02.217Z,100840.33
2023-04-28T07:48:36.409Z,100844.02
2023-04-28T07:51:10.369Z,100842.45
2023-04-28T07:53:44.347Z,100838.02
2023-04-28T07:56:18.505Z,100841.42
2023-04-28T07:58:52.962Z,100839.88
2023-04-28T08:01:26.228Z,100839.06
2023-04-28T08:04:00.266Z,100831.55
2023-04-28T08:06:34.877Z,100835.10
2023-04-28T08:09:08.706Z,100829.66
2023-04-28T08:11:43.019Z,100823.83
2023-04-28T08:14:18.228Z,100819.16
2023-04-28T08:16:52.179Z,100825.29
2023-04-28T08:19:25.663Z,100826.46
2023-04-28T08:22:00.346Z,100823.64
2023-04-28T08:24:34.829Z,100819.55
2023-04-28T08:27:08.546Z,100818.78
2023-04-28T08:29:42.205Z,100818.09
2023-04-28T08:32:16.165Z,100815.19
2023-04-28T08:34:49.535Z,100812.14
2023-04-28T08:37:23.127Z,100807.08
2023-04-28T08:40:02.613Z,100801.05
2023-04-28T08:42:37.987Z,100792.67
2023-04-28T08:45:17.004Z,100790.63
2023-04-28T08:47:53.105Z,100794.60
2023-04-28T08:50:29.132Z,100791.16
2023-04-28T08:53:04.421Z,100787.31
2023-04-28T08:55:39.273Z,100791.52
2023-04-28T08:58:13.301Z,100788.98
2023-04-28T09:00:47.012Z,100787.21
2023-04-28T09:03:21.017Z,100781.48
2023-04-28T09:05:54.942Z,100775.14
2023-04-28T09:08:28.622Z,100778.38
2023-04-28T09:11:13.979Z,100776.93
2023-04-28T09:13:47.130Z,100775.27
2023-04-28T09:16:20.702Z,100776.17
2023-04-28T09:19:01.174Z,100771.76
2023-04-28T09:21:34.685Z,100773.50
2023-04-28T09:24:09.027Z,100775.73
2023-04-28T09:26:55.426Z,100777.95
2023-04-28T09:29:29.870Z,100777.37
2023-04-28T09:32:18.747Z,100776.22
2023-04-28T09:34:54.247Z,100777.51
2023-04-28T09:37:31.193Z,100773.16
2023-04-28T09:40:10.869Z,100771.95
2023-04-28T09:42:46.901Z,100771.27
2023-04-28T09:45:20.919Z,100764.19
2023-04-28T09:47:55.232Z,100759.95
2023-04-28T09:50:29.196Z,100755.82
2023-04-28T09:53:04.470Z,100752.77
2023-04-28T09:55:43.860Z,100749.15
2023-04-28T09:58:18.860Z,100747.70
2023-04-28T10:00:55.758Z,100748.77
2023-04-28T10:03:30.886Z,100745.42
2023-04-28T10:06:05.967Z,100733.43
2023-04-28T10:08:40.605Z,100724.98
2023-04-28T10:11:14.800Z,100724.13
2023-04-28T10:13:49.027Z,100721.46
2023-04-28T10:16:24.104Z,100720.54
2023-04-28T10:18:58.053Z,100716.20
2023-04-28T10:21:37.950Z,100714.30
2023-04-28T10:24:16.973Z,100719.14
2023-04-28T10:27:11.758Z,100711.42
2023-04-28T10:29:45.559Z,100710.90
2023-04-28T10:32:29.365Z,100705.39
2023-04-28T10:35:32.578Z,100705.67
2023-04-28T10:38:09.951Z,100701.13
2023-04-28T10:40:45.149Z,100700.50
2023-04-28T10:43:40.169Z,100695.45
2023-04-28T10:46:15.102Z,100693.80
2023-04-28T10:49:03.570Z,100691.81
2023-04-28T10:51:38.430Z,100688.80
2023-04-28T10:54:24.438Z,100679.85
2023-04-28T10:57:19.803Z,100683.73
2023-04-28T11:00:27.449Z,100677.56
2023-04-28T11:03:00.870Z,100675.51
2023-04-28T11:05:35.567Z,100669.00
2023-04-28T11:08:37.927Z,100671.70
2023-04-28T11:11:26.546Z,100669.08
2023-04-28T11:14:36.514Z,100663.73
2023-04-28T11:17:13.787Z,100659.41
2023-04-28T11:19:50.073Z,100656.85
2023-04-28T11:22:24.571Z,100653.06
2023-04-28T11:25:02.150Z,100650.84
2023-04-28T11:27:34.915Z,100651.38
2023-04-28T11:30:25.719Z,100652.79
2023-04-28T11:32:59.482Z,100655.00
2023-04-28T11:35:45.716Z,100652.59
2023-04-28T11:38:19.633Z,100656.98
2023-04-28T11:41:02.474Z,100658.83
2023-04-28T11:43:46.574Z,100650.70
2023-04-28T11:46:23.548Z,100646.98
2023-04-28T11:49:06.682Z,100650.11
2023-04-28T11:51:42.030Z,100644.38
2023-04-28T11:54:15.412Z,100640.98
2023-04-28T11:56:48.945Z,100643.65
2023-04-28T11:59:26.329Z,100643.30
2023-04-28T12:01:59.889Z,100640.16
2023-04-28T12:04:36.820Z,100637.52
2023-04-28T12:07:12.365Z,100631.69
2023-04-28T12:09:49.102Z,100628.61
2023-04-28T12:12:49.133Z,100626.22
2023-04-28T12:15:25.695Z,100623.22
2023-04-28T12:18:11.014Z,100624.41
2023-04-28T12:20:45.267Z,100620.27
2023-04-28T12:23:30.917Z,100612.66
2023-04-28T12:26:05.829Z,100605.77
2023-04-28T12:28:43.283Z,100603.59
2023-04-28T12:31:17.052Z,100605.64
2023-04-28T12:33:51.425Z,100602.58
2023-04-28T12:36:25.070Z,100594.14
2023-04-28T12:38:59.102Z,100592.96
2023-04-28T12:41:32.987Z,100590.09
2023-04-28T12:44:06.921Z,100593.65
2023-04-28T12:46:40.538Z,100586.13
2023-04-28T12:49:14.392Z,100583.84
2023-04-28T12:51:48.654Z,100585.23
2023-04-28T12:54:22.664Z,100585.48
2023-04-28T12:56:56.299Z,100591.08
2023-04-28T12:59:30.067Z,100585.83
2023-04-28T13:02:03.637Z,100584.41
2023-04-28T13:04:37.687Z,100578.71
2023-04-28T13:07:11.690Z,100576.50
2023-04-28T13:09:45.973Z,100579.05
2023-04-28T13:12:19.835Z,100576.23
2023-04-28T13:14:53.514Z,100576.45
2023-04-28T13:17:27.519Z,100574.98
2023-04-28T13:20:01.757Z,100574.75
2023-04-28T13:22:35.201Z,100575.51
2023-04-28T13:25:10.451Z,100573.17
2023-04-28T13:27:44.026Z,100569.71
2023-04-28T13:30:18.709Z,100568.60
2023-04-28T13:32:54.483Z,100565.39
2023-04-28T13:35:30.147Z,100561.08
2023-04-28T13:38:04.772Z,100558.48
2023-04-28T13:40:38.466Z,100557.85
2023-04-28T13:43:12.127Z,100555.17
2023-04-28T13:45:46.283Z,100556.69
2023-04-28T13:48:19.920Z,100554.11
2023-04-28T13:50:53.570Z,100554.20
2023-04-28T13:53:27.095Z,100555.39
2023-04-28T13:56:00.904Z,100550.00
2023-04-28T13:58:34.608Z,100548.61
2023-04-28T14:01:08.298Z,100547.52
2023-04-28T14:03:42.270Z,100548.86
2023-04-28T14:06:16.148Z,100542.31
2023-04-28T14:08:50.210Z,100534.77
2023-04-28T14:11:23.897Z,100530.64
2023-04-28T14:13:57.870Z,100527.70
2023-04-28T14:16:31.561Z,100526.41
2023-04-28T14:19:07.693Z,100522.73
2023-04-28T14:21:42.373Z,100525.20
2023-04-28T14:24:16.116Z,100519.38
2023-04-28T14:26:50.132Z,100516.77
2023-04-28T14:29:24.568Z,100516.18
2023-04-28T14:31:58.711Z,100512.00
2023-04-28T14:34:32.162Z,100508.14
2023-04-28T14:37:06.439Z,100509.05
2023-04-28T14:39:41.066Z,100506.77
2023-04-28T14:42:14.389Z,100505.90
2023-04-28T14:44:48.612Z,100506.05
2023-04-28T14:47:22.572Z,100503.78
2023-04-28T14:49:56.399Z,100498.42
2023-04-28T14:52:32.096Z,100497.34
2023-04-28T14:55:07.399Z,100494.08
2023-04-28T14:57:40.920Z,100490.02
2023-04-28T15:00:16.616Z,100486.32
2023-04-28T15:02:50.869Z,100486.17
2023-04-28T15:05:24.797Z,100486.25
2023-04-28T15:07:59.099Z,100481.95
2023-04-28T15:10:41.172Z,100480.42
2023-04-28T15:13:14.799Z,100475.79
2023-04-28T15:15:49.245Z,100472.70
2023-04-28T15:18:23.036Z,100471.58
2023-04-28T15:20:56.577Z,100468.34
2023-04-28T15:23:30.224Z,100466.20
2023-04-28T15:26:05.354Z,100465.55
2023-04-28T15:28:39.715Z,100464.33
2023-04-28T15:31:13.708Z,100467.36
2023-04-28T15:33:47.846Z,100463.71
2023-04-28T15:36:21.673Z,100461.97
2023-04-28T15:38:55.394Z,100461.45
2023-04-28T15:41:29.603Z,100460.95
2023-04-28T15:44:03.448Z,100457.47
2023-04-28T15:46:37.384Z,100454.22
2023-04-28T15:49:11.499Z,100456.70
2023-04-28T15:51:45.952Z,100450.96
2023-04-28T15:54:19.698Z,100451.67
2023-04-28T15:56:53.324Z,100451.83
2023-04-28T15:59:27.222Z,100455.98
2023-04-28T16:02:00.882Z,100457.37
2023-04-28T16:04:34.855Z,100454.98
2023-04-28T16:07:08.676Z,100455.04
2023-04-28T16:09:42.631Z,100451.44
2023-04-28T16:12:17.182Z,100445.73
2023-04-28T16:14:53.457Z,100448.49
2023-04-28T16:17:27.368Z,100444.86
2023-04-28T16:20:01.349Z,100442.34
2023-04-28T16:22:36.885Z,100442.69
2023-04-28T16:25:12.063Z,100442.65
2023-04-28T16:27:45.467Z,100438.56
2023-04-28T16:30:19.024Z,100439.76
2023-04-28T16:32:53.366Z,100440.85
2023-04-28T16:35:27.773Z,100439.59
2023-04-28T16:38:01.415Z,100433.56
2023-04-28T16:40:35.866Z,100432.61
2023-04-28T16:43:10.584Z,100427.67
2023-04-28T16:45:44.488Z,100423.95
2023-04-28T16:48:20.562Z,100422.81
2023-04-28T16:50:55.227Z,100424.77
2023-04-28T16:53:29.023Z,100422.71
2023-04-28T16:56:02.874Z,100420.16
2023-04-28T16:58:36.950Z,100419.41
2023-04-28T17:01:10.487Z,100419.70
2023-04-28T17:03:44.790Z,100417.89
2023-04-28T17:06:18.959Z,100419.45
2023-04-28T17:08:52.583Z,100417.36
2023-04-28T17:11:27.307Z,100416.41
2023-04-28T17:14:01.020Z,100414.43
2023-04-28T17:16:36.503Z,100414.81
2023-04-28T17:19:11.027Z,100411.30
2023-04-28T17:21:46.927Z,100411.11
2023-04-28T17:24:21.486Z,100415.54
2023-04-28T17:26:55.801Z,100415.30
2023-04-28T17:29:29.573Z,100414.60
2023-04-28T17:32:03.182Z,100411.95
2023-04-28T17:34:36.728Z,100411.94
2023-04-28T17:37:10.633Z,100408.70
2023-04-28T17:39:44.168Z,100407.25
2023-04-28T17:42:18.540Z,100406.52
2023-04-28T17:44:52.467Z,100409.09
2023-04-28T17:47:26.666Z,100410.16
2023-04-28T17:50:01.183Z,100407.02
2023-04-28T17:52:35.318Z,100407.79
2023-04-28T17:55:10.317Z,100407.16
2023-04-28T17:57:45.266Z,100407.89
2023-04-28T18:00:20.124Z,100406.88
2023-04-28T18:02:55.578Z,100409.70
2023-04-28T18:05:30.354Z,100406.89
2023-04-28T18:08:05.221Z,100410.17
2023-04-28T18:10:39.608Z,100408.13
2023-04-28T18:13:14.687Z,100406.90
2023-04-28T18:15:50.281Z,100407.81
2023-04-28T18:18:23.822Z,100404.17
2023-04-28T18:21:02.754Z,100398.77
2023-04-28T18:23:39.236Z,100401.16
2023-04-28T18:26:19.160Z,100400.98
2023-04-28T18:28:55.795Z,100405.96
2023-04-28T18:31:30.930Z,100404.40
2023-04-28T18:34:05.683Z,100403.33
2023-04-28T18:36:40.655Z,100407.63
2023-04-28T18:39:16.348Z,100408.45
2023-04-28T18:41:53.467Z,100410.83
2023-04-28T18:44:28.701Z,100413.24
2023-04-28T18:47:03.452Z,100410.20
2023-04-28T18:49:39.825Z,100408.19
2023-04-28T18:52:15.122Z,100407.32
2023-04-28T18:54:49.890Z,100405.42
2023-04-28T18:57:25.120Z,100406.30
2023-04-28T19:00:03.630Z,100407.41
2023-04-28T19:02:38.800Z,100408.04
2023-04-28T19:05:14.540Z,100407.62
2023-04-28T19:07:52.354Z,100404.96
2023-04-28T19:10:26.942Z,100407.12
2023-04-28T19:13:02.989Z,100407.95
2023-04-28T19:15:38.544Z,100406.58
2023-04-28T19:18:13.801Z,100404.02
2023-04-28T19:20:48.237Z,100399.64
2023-04-28T19:23:23.859Z,100400.20
2023-04-28T19:25:59.065Z,100403.11
2023-04-28T19:28:39.062Z,100399.64
2023-04-28T19:31:18.915Z,100402.52
2023-04-28T19:33:58.628Z,100400.40
2023-04-28T19:36:34.225Z,100401.05
2023-04-28T19:39:11.345Z,100401.23
2023-04-28T19:41:49.397Z,100398.46
2023-04-28T19:44:24.946Z,100398.27
2023-04-28T19:47:01.035Z,100398.88
2023-04-28T19:49:36.993Z,100397.08
2023-04-28T19:52:12.626Z,100400.09
2023-04-28T19:54:50.151Z,100392.38
2023-04-28T19:57:26.392Z,100393.52
2023-04-28T20:00:03.897Z,100396.33
2023-04-28T20:02:45.394Z,100400.27
2023-04-28T20:05:25.278Z,100400.48
2023-04-28T20:08:01.110Z,100396.71
2023-04-28T20:10:35.382Z,100401.96
2023-04-28T20:13:10.261Z,100403.94
2023-04-28T20:15:45.064Z,100402.41
2023-04-28T20:18:20.870Z,100401.40
2023-04-28T20:21:08.467Z,100399.27
2023-04-28T20:23:44.102Z,100402.95
2023-04-28T20:26:21.666Z,100398.73
2023-04-28T20:28:58.840Z,100402.45
2023-04-28T20:31:33.601Z,100403.06
2023-04-28T20:34:08.306Z,100404.09
2023-04-28T20:36:43.093Z,100404.44
2023-04-28T20:39:17.319Z,100406.38
2023-04-28T20:41:51.233Z,100405.88
2023-04-28T20:44:25.193Z,100403.58
2023-04-28T20:46:59.516Z,100403.27
2023-04-28T20:49:33.753Z,100402.78
2023-04-28T20:52:07.713Z,100402.80
2023-04-28T20:54:43.987Z,100401.27
2023-04-28T20:57:18.090Z,100403.35
2023-04-28T20:59:52.188Z,100404.23
2023-04-28T21:02:26.407Z,100402.23
2023-04-28T21:05:00.711Z,100399.98
2023-04-28T21:07:34.713Z,100397.71
2023-04-28T21:10:10.548Z,100397.42
2023-04-28T21:12:45.160Z,100390.73
2023-04-28T21:15:19.332Z,100388.41
2023-04-28T21:17:53.164Z,100389.38
2023-04-28T21:20:26.604Z,100386.52
2023-04-28T21:23:00.185Z,100386.26
2023-04-28T21:25:33.793Z,100391.16
2023-04-28T21:28:07.955Z,100391.48
2023-04-28T21:30:41.704Z,100388.52
2023-04-28T21:33:16.320Z,100386.95
2023-04-28T21:35:50.387Z,100389.69
2023-04-28T21:38:24.058Z,100388.19
2023-04-28T21:40:57.600Z,100392.45
2023-04-28T21:43:31.267Z,100391.04
2023-04-28T21:46:05.300Z,100395.31
2023-04-28T21:48:39.677Z,100397.87
2023-04-28T21:51:14.785Z,100393.32
2023-04-28T21:53:48.475Z,100392.61
2023-04-28T21:56:22.215Z,100389.77
2023-04-28T21:58:56.082Z,100392.75
2023-04-28T22:01:30.078Z,100394.96
2023-04-28T22:04:04.224Z,100391.27
2023-04-28T22:06:38.241Z,100390.10
2023-04-28T22:09:11.647Z,100387.43
2023-04-28T22:11:45.060Z,100384.02
2023-04-28T22:14:38.936Z,100386.17
2023-04-28T22:17:12.294Z,100384.64
2023-04-28T22:19:46.309Z,100387.36
2023-04-28T22:22:20.711Z,100385.95
2023-04-28T22:24:54.972Z,100386.64
2023-04-28T22:27:30.705Z,100383.85
2023-04-28T22:30:04.475Z,100382.98
2023-04-28T22:32:38.108Z,100382.22
2023-04-28T22:35:13.116Z,100376.96
2023-04-28T22:37:47.153Z,100374.35
2023-04-28T22:40:21.578Z,100372.29
2023-04-28T22:42:54.821Z,100374.69
2023-04-28T22:45:29.032Z,100376.04
2023-04-28T22:48:02.703Z,100377.05
2023-04-28T22:50:36.092Z,100371.97
2023-04-28T22:53:09.832Z,100368.52
2023-04-28T22:55:43.961Z,100370.46
2023-04-28T22:58:17.267Z,100369.05
2023-04-28T23:00:50.954Z,100369.04
2023-04-28T23:03:24.447Z,100370.05
2023-04-28T23:05:58.149Z,100370.01
2023-04-28T23:08:31.737Z,100366.06
2023-04-28T23:11:06.827Z,100366.07
2023-04-28T23:13:40.224Z,100366.92
2023-04-28T23:16:14.378Z,100363.67
2023-04-28T23:18:48.451Z,100360.48
2023-04-28T23:21:22.441Z,100359.56
2023-04-28T23:23:56.149Z,100357.23
2023-04-28T23:26:29.922Z,100355.36
2023-04-28T23:29:03.336Z,100352.98
2023-04-28T23:31:40.155Z,100351.48
2023-04-28T23:34:14.230Z,100351.74
2023-04-28T23:36:47.922Z,100352.48
2023-04-28T23:39:21.386Z,100348.88
2023-04-28T23:41:55.050Z,100344.30
2023-04-28T23:44:29.029Z,100343.61
2023-04-28T23:47:02.621Z,100340.52
2023-04-28T23:49:36.240Z,100338.64
2023-04-28T23:52:09.787Z,100337.63
2023-04-28T23:54:43.872Z,100331.25
2023-04-28T23:57:17.521Z,100326.80
2023-04-28T23:59:51.476Z,100325.41
